Time;durP1;ratioP1;P1;durP2;ratioP2;P2;SDS_P1;SDS_P2;PMS_P1;PMS_P2;Temp;Humidity;BMP_temperature;BMP_pressure;BME280_temperature;BME280_humidity;BME280_pressure;Samples;Min_cycle;Max_cycle;Signal;HPM_P1;HPM_P2
2022/01/18 00:01:46;;;;;;;64.13;51.35;;;;;;;;;;12555035;28;20033;-76
2022/01/18 00:07:57;;;;;;;95.30;71.50;;;;;;;;;;12555075;28;20524;-76
2022/01/18 00:14:09;;;;;;;86.05;66.38;;;;;;;;;;12555764;28;20041;-77
2022/01/18 00:20:18;;;;;;;73.78;60.05;;;;;;;;;;12554925;28;20504;-76
2022/01/18 00:26:33;;;;;;;73.82;58.28;;;;;;;;;;12553990;28;20029;-75
2022/01/18 00:39:00;;;;;;;57.95;50.40;;;;;;;;;;12551775;28;20041;-75
2022/01/18 00:45:03;;;;;;;55.58;47.25;;;;;;;;;;12535531;28;20048;-75
2022/01/18 00:51:26;;;;;;;47.72;42.50;;;;;;;;;;12537450;28;20052;-76
2022/01/18 00:57:34;;;;;;;38.75;34.60;;;;;;;;;;12536692;28;20040;-76
2022/01/18 01:03:39;;;;;;;43.17;38.57;;;;;;;;;;12551417;28;20495;-76
2022/01/18 01:09:45;;;;;;;36.38;32.53;;;;;;;;;;12550144;28;20056;-77
2022/01/18 01:35:08;;;;;;;31.05;27.80;;;;;;;;;;12550847;28;20052;-75
2022/01/18 01:47:36;;;;;;;32.00;28.70;;;;;;;;;;12548545;28;20040;-75
2022/01/18 01:53:42;;;;;;;30.92;27.65;;;;;;;;;;12549398;28;20474;-76
2022/01/18 01:59:45;;;;;;;33.23;29.70;;;;;;;;;;12548912;28;20029;-75
2022/01/18 02:05:53;;;;;;;45.83;30.88;;;;;;;;;;12548865;28;20040;-75
2022/01/18 02:12:01;;;;;;;33.67;30.08;;;;;;;;;;12533121;28;20061;-75
2022/01/18 02:24:30;;;;;;;30.77;27.60;;;;;;;;;;12527370;28;20045;-76
2022/01/18 02:30:35;;;;;;;40.63;36.35;;;;;;;;;;12531100;28;20049;-76
2022/01/18 02:36:40;;;;;;;41.83;37.30;;;;;;;;;;12548215;28;20033;-76
2022/01/18 02:42:57;;;;;;;34.03;30.38;;;;;;;;;;12533419;28;20044;-76
2022/01/18 02:49:01;;;;;;;37.17;33.38;;;;;;;;;;12532439;28;20033;-76
2022/01/18 02:55:05;;;;;;;47.28;42.15;;;;;;;;;;12530167;28;20036;-76
2022/01/18 03:07:30;;;;;;;33.72;30.15;;;;;;;;;;12544725;28;20067;-75
2022/01/18 03:13:38;;;;;;;32.63;29.38;;;;;;;;;;12513933;28;20068;-76
2022/01/18 03:19:41;;;;;;;30.15;27.05;;;;;;;;;;12528116;28;20514;-76
2022/01/18 03:25:55;;;;;;;25.60;23.10;;;;;;;;;;12545230;28;20072;-76
2022/01/18 03:31:58;;;;;;;27.17;24.38;;;;;;;;;;12528131;28;20394;-76
2022/01/18 03:38:02;;;;;;;32.55;29.20;;;;;;;;;;12528296;28;20037;-76
2022/01/18 03:44:05;;;;;;;30.65;27.52;;;;;;;;;;12528826;28;20045;-76
2022/01/18 03:50:10;;;;;;;29.98;26.80;;;;;;;;;;12528786;28;20060;-77
2022/01/18 03:56:13;;;;;;;31.27;28.13;;;;;;;;;;12545579;28;20063;-76
2022/01/18 04:02:16;;;;;;;31.35;28.23;;;;;;;;;;12545150;28;20044;-76
2022/01/18 04:08:18;;;;;;;32.50;29.10;;;;;;;;;;12528125;28;20049;-77
2022/01/18 04:14:24;;;;;;;29.13;26.13;;;;;;;;;;12550404;28;20075;-77
2022/01/18 04:32:50;;;;;;;25.23;22.73;;;;;;;;;;12552718;28;20045;-77
2022/01/18 04:38:52;;;;;;;24.55;22.05;;;;;;;;;;12536405;28;20033;-77
2022/01/18 04:51:14;;;;;;;33.78;30.35;;;;;;;;;;12590351;28;20476;-76
2022/01/18 05:03:18;;;;;;;32.42;29.02;;;;;;;;;;12589650;28;20044;-76
2022/01/18 05:09:22;;;;;;;30.63;27.35;;;;;;;;;;12587521;28;20036;-77
2022/01/18 05:27:48;;;;;;;32.28;28.98;;;;;;;;;;12586911;28;20274;-77
2022/01/18 05:33:51;;;;;;;32.15;24.52;;;;;;;;;;12569521;28;20504;-77
2022/01/18 05:39:54;;;;;;;26.83;24.00;;;;;;;;;;12587468;28;20044;-79
2022/01/18 05:45:57;;;;;;;24.85;22.15;;;;;;;;;;12568581;28;20052;-76
2022/01/18 05:51:59;;;;;;;22.08;19.88;;;;;;;;;;12586682;28;20029;-77
2022/01/18 05:58:02;;;;;;;21.00;18.92;;;;;;;;;;12560404;28;20029;-76
2022/01/18 06:04:11;;;;;;;;;;;;;;;;;;12536343;28;20491;-75
2022/01/18 06:10:27;;;;;;;18.58;15.45;;;;;;;;;;12742466;27;20333;-75
2022/01/18 06:16:29;;;;;;;20.77;18.58;;;;;;;;;;12739388;28;20038;-76
2022/01/18 06:22:33;;;;;;;20.88;18.80;;;;;;;;;;12722654;28;20035;-77
2022/01/18 06:28:35;;;;;;;20.85;18.80;;;;;;;;;;12739534;28;20039;-77
2022/01/18 06:34:37;;;;;;;19.60;17.70;;;;;;;;;;12734573;28;20042;-76
2022/01/18 06:40:39;;;;;;;19.02;17.05;;;;;;;;;;12734939;27;20114;-77
2022/01/18 06:46:42;;;;;;;22.65;20.48;;;;;;;;;;12692765;27;20039;-76
2022/01/18 06:52:43;;;;;;;21.27;19.02;;;;;;;;;;12720229;27;20024;-77
2022/01/18 06:58:46;;;;;;;21.02;17.63;;;;;;;;;;12706326;27;20039;-78
2022/01/18 07:04:48;;;;;;;31.38;27.98;;;;;;;;;;12701156;28;20384;-76
2022/01/18 07:10:50;;;;;;;22.65;20.42;;;;;;;;;;12695516;27;20027;-76
2022/01/18 07:16:52;;;;;;;20.50;18.52;;;;;;;;;;12692781;27;20436;-77
2022/01/18 07:22:54;;;;;;;17.03;14.20;;;;;;;;;;12641932;27;20028;-76
2022/01/18 07:28:56;;;;;;;20.40;18.48;;;;;;;;;;12662028;28;20405;-76
2022/01/18 07:34:58;;;;;;;17.02;15.07;;;;;;;;;;12663007;27;20275;-76
2022/01/18 07:41:00;;;;;;;23.90;21.60;;;;;;;;;;12665209;27;20036;-76
2022/01/18 07:47:01;;;;;;;36.28;31.67;;;;;;;;;;12679734;27;20389;-76
2022/01/18 07:53:03;;;;;;;30.00;26.75;;;;;;;;;;12638297;27;20028;-76
2022/01/18 07:59:05;;;;;;;28.73;25.10;;;;;;;;;;12651397;28;20034;-77
2022/01/18 08:05:07;;;;;;;29.98;26.88;;;;;;;;;;12666951;27;20051;-76
2022/01/18 08:11:09;;;;;;;27.80;24.80;;;;;;;;;;12670146;27;20481;-76
2022/01/18 08:17:11;;;;;;;26.57;23.87;;;;;;;;;;12664646;27;20642;-77
2022/01/18 08:23:14;;;;;;;28.05;25.25;;;;;;;;;;12660942;27;20032;-76
2022/01/18 08:29:15;;;;;;;22.20;19.92;;;;;;;;;;12664536;27;20042;-77
2022/01/18 08:35:18;;;;;;;21.83;19.70;;;;;;;;;;12637148;27;20369;-77
2022/01/18 08:41:20;;;;;;;22.13;20.00;;;;;;;;;;12664290;27;20020;-75
2022/01/18 08:47:22;;;;;;;20.88;18.88;;;;;;;;;;12674744;27;20044;-76
2022/01/18 08:53:23;;;;;;;18.53;16.57;;;;;;;;;;12635579;27;20036;-75
2022/01/18 08:59:25;;;;;;;15.25;13.85;;;;;;;;;;12658585;28;20028;-77
2022/01/18 09:05:27;;;;;;;16.17;14.57;;;;;;;;;;12643992;27;20055;-77
2022/01/18 09:11:31;;;;;;;14.45;13.02;;;;;;;;;;12671115;27;20020;-77
2022/01/18 09:17:34;;;;;;;14.65;13.23;;;;;;;;;;12664146;27;20470;-77
2022/01/18 09:23:38;;;;;;;15.50;14.00;;;;;;;;;;12665148;27;20251;-78
2022/01/18 09:29:40;;;;;;;293.90;269.85;;;;;;;;;;12643617;27;20036;-80
2022/01/18 09:35:42;;;;;;;31.23;28.53;;;;;;;;;;12658506;28;20050;-81
2022/01/18 09:41:50;;;;;;;29.42;26.88;;;;;;;;;;12663529;27;20043;-78
2022/01/18 09:47:54;;;;;;;69.32;63.28;;;;;;;;;;12659998;27;20047;-77
2022/01/18 09:53:56;;;;;;;32.45;29.45;;;;;;;;;;12629805;28;20054;-75
2022/01/18 09:59:59;;;;;;;36.05;32.58;;;;;;;;;;12660807;27;20410;-76
2022/01/18 10:06:02;;;;;;;23.02;20.75;;;;;;;;;;12654174;28;20054;-76
2022/01/18 10:12:05;;;;;;;21.00;18.90;;;;;;;;;;12669750;28;20035;-76
2022/01/18 10:18:08;;;;;;;16.45;14.95;;;;;;;;;;12632466;28;20396;-76
2022/01/18 10:24:22;;;;;;;47.22;42.97;;;;;;;;;;12618902;28;20028;-75
2022/01/18 10:30:39;;;;;;;43.35;39.25;;;;;;;;;;12631862;28;20048;-77
2022/01/18 10:37:04;;;;;;;26.52;23.77;;;;;;;;;;12649295;28;20046;-77
2022/01/18 10:43:07;;;;;;;22.00;19.80;;;;;;;;;;12689602;27;20039;-77
2022/01/18 10:49:09;;;;;;;18.95;17.13;;;;;;;;;;12698902;28;20040;-77
2022/01/18 10:55:18;;;;;;;16.53;14.93;;;;;;;;;;12697054;27;20042;-77
2022/01/18 11:01:20;;;;;;;17.13;15.30;;;;;;;;;;12687337;27;20023;-77
2022/01/18 11:07:24;;;;;;;12.20;11.00;;;;;;;;;;12721475;27;20476;-78
2022/01/18 11:13:32;;;;;;;13.88;12.48;;;;;;;;;;12699151;27;20060;-78
2022/01/18 11:19:37;;;;;;;11.93;10.60;;;;;;;;;;12709074;27;20040;-77
2022/01/18 11:25:40;;;;;;;12.20;10.98;;;;;;;;;;12708172;27;20639;-77
2022/01/18 11:31:45;;;;;;;9.75;8.80;;;;;;;;;;12708605;27;20253;-76
2022/01/18 11:38:04;;;;;;;8.98;8.07;;;;;;;;;;12702560;27;20043;-77
2022/01/18 11:44:22;;;;;;;8.90;7.97;;;;;;;;;;12713755;27;20034;-75
2022/01/18 11:50:27;;;;;;;5.72;5.10;;;;;;;;;;12713372;27;20449;-77
2022/01/18 11:56:34;;;;;;;8.57;7.60;;;;;;;;;;12691784;27;20034;-76
2022/01/18 12:02:40;;;;;;;7.07;6.38;;;;;;;;;;12702527;27;20038;-77
2022/01/18 12:08:43;;;;;;;6.45;5.60;;;;;;;;;;12694010;27;20051;-76
2022/01/18 12:14:45;;;;;;;6.80;5.90;;;;;;;;;;12703934;27;20237;-78
2022/01/18 12:20:57;;;;;;;6.05;5.35;;;;;;;;;;12697025;27;20027;-77
2022/01/18 12:27:03;;;;;;;7.10;5.28;;;;;;;;;;12700369;27;20050;-77
2022/01/18 12:33:17;;;;;;;6.50;5.80;;;;;;;;;;12708606;27;20031;-77
2022/01/18 12:39:19;;;;;;;4.93;4.43;;;;;;;;;;12669220;27;20032;-76
2022/01/18 12:45:33;;;;;;;6.28;4.60;;;;;;;;;;12679298;28;20038;-75
2022/01/18 12:51:35;;;;;;;5.10;4.00;;;;;;;;;;12679243;28;20495;-76
2022/01/18 12:57:36;;;;;;;13.57;12.15;;;;;;;;;;12696767;28;20040;-77
2022/01/18 13:03:39;;;;;;;8.73;7.72;;;;;;;;;;12678242;28;20035;-77
2022/01/18 13:10:02;;;;;;;14.80;12.80;;;;;;;;;;12660330;28;20176;-76
2022/01/18 13:28:33;;;;;;;8.07;7.28;;;;;;;;;;12727827;27;20046;-76
2022/01/18 13:34:35;;;;;;;;;;;;;;;;;;12728151;27;20031;-76
2022/01/18 13:40:38;;;;;;;13.40;12.00;;;;;;;;;;12727881;27;19915;-76
2022/01/18 13:46:40;;;;;;;10.77;9.68;;;;;;;;;;12727512;27;20049;-76
2022/01/18 13:52:42;;;;;;;19.25;17.40;;;;;;;;;;12710327;27;20411;-76
2022/01/18 13:58:45;;;;;;;9.95;8.30;;;;;;;;;;12710167;27;20039;-76
2022/01/18 14:04:48;;;;;;;6.55;5.85;;;;;;;;;;12706695;27;20034;-77
2022/01/18 14:11:03;;;;;;;21.50;19.50;;;;;;;;;;12722637;28;20065;-77
2022/01/18 14:17:08;;;;;;;12.82;11.63;;;;;;;;;;12726933;28;20031;-77
2022/01/18 14:23:20;;;;;;;8.95;8.05;;;;;;;;;;12726885;28;20517;-77
2022/01/18 14:29:23;;;;;;;7.00;6.17;;;;;;;;;;12714433;27;20042;-77
2022/01/18 14:35:25;;;;;;;5.40;4.90;;;;;;;;;;12719273;27;20039;-76
2022/01/18 14:41:27;;;;;;;5.75;5.18;;;;;;;;;;12736024;27;20027;-76
2022/01/18 14:47:29;;;;;;;6.88;6.18;;;;;;;;;;12718618;27;20468;-76
2022/01/18 14:53:31;;;;;;;5.10;4.57;;;;;;;;;;12735620;27;20039;-76
2022/01/18 14:59:33;;;;;;;4.70;4.03;;;;;;;;;;12735497;27;20042;-76
2022/01/18 15:05:35;;;;;;;6.93;5.50;;;;;;;;;;12735016;27;20055;-77
2022/01/18 15:11:37;;;;;;;7.82;7.03;;;;;;;;;;12734600;27;20479;-77
2022/01/18 15:17:38;;;;;;;19.80;18.02;;;;;;;;;;12717398;27;20042;-76
2022/01/18 15:23:40;;;;;;;16.88;14.75;;;;;;;;;;12733822;27;20545;-76
2022/01/18 15:29:42;;;;;;;17.80;14.15;;;;;;;;;;12751972;27;20066;-77
2022/01/18 15:35:44;;;;;;;25.00;22.60;;;;;;;;;;12733550;27;20035;-75
2022/01/18 15:41:45;;;;;;;14.30;12.77;;;;;;;;;;12732700;27;20031;-76
2022/01/18 15:47:47;;;;;;;18.20;16.55;;;;;;;;;;12716016;27;20039;-76
2022/01/18 15:53:49;;;;;;;13.85;11.45;;;;;;;;;;12715677;27;20364;-77
2022/01/18 15:59:52;;;;;;;16.42;14.93;;;;;;;;;;12715263;27;20479;-76
2022/01/18 16:05:54;;;;;;;;;;;;;;;;;;12715220;27;20415;-75
2022/01/18 16:11:56;;;;;;;10.88;9.88;;;;;;;;;;12714549;27;19911;-75
2022/01/18 16:17:58;;;;;;;10.50;9.50;;;;;;;;;;12714524;27;20442;-75
2022/01/18 16:24:00;;;;;;;9.82;8.30;;;;;;;;;;12731444;27;20031;-76
2022/01/18 16:30:03;;;;;;;12.37;9.50;;;;;;;;;;12730812;27;20039;-76
2022/01/18 16:36:05;;;;;;;9.80;8.20;;;;;;;;;;12730813;27;20042;-76
2022/01/18 16:42:07;;;;;;;8.77;7.27;;;;;;;;;;12713146;27;20035;-76
2022/01/18 16:48:09;;;;;;;9.37;7.03;;;;;;;;;;12712664;27;20039;-77
2022/01/18 16:54:11;;;;;;;7.67;5.83;;;;;;;;;;12711450;27;20046;-77
2022/01/18 17:00:14;;;;;;;8.43;6.40;;;;;;;;;;12729179;27;20038;-77
2022/01/18 17:06:17;;;;;;;7.97;6.30;;;;;;;;;;12729156;27;20078;-77
2022/01/18 17:12:20;;;;;;;7.55;6.43;;;;;;;;;;12728958;27;20480;-76
2022/01/18 17:18:22;;;;;;;7.13;5.93;;;;;;;;;;12728688;27;20518;-77
2022/01/18 17:24:24;;;;;;;7.10;6.37;;;;;;;;;;12728620;27;20058;-77
2022/01/18 17:30:26;;;;;;;10.07;7.10;;;;;;;;;;12727965;27;20047;-76
2022/01/18 17:36:28;;;;;;;6.93;6.10;;;;;;;;;;12728096;27;20035;-76
2022/01/18 17:42:30;;;;;;;9.85;6.45;;;;;;;;;;12727096;27;20110;-76
2022/01/18 17:48:32;;;;;;;11.47;8.53;;;;;;;;;;12710865;27;20061;-76
2022/01/18 17:54:34;;;;;;;10.07;7.57;;;;;;;;;;12727510;27;20042;-76
2022/01/18 18:00:38;;;;;;;8.33;7.53;;;;;;;;;;12727008;27;20031;-76
2022/01/18 18:06:40;;;;;;;8.43;7.15;;;;;;;;;;12709484;27;20407;-76
2022/01/18 18:12:43;;;;;;;7.57;6.72;;;;;;;;;;12710342;28;20031;-76
2022/01/18 18:18:45;;;;;;;8.45;6.80;;;;;;;;;;12726652;28;20411;-76
2022/01/18 18:24:49;;;;;;;7.90;7.07;;;;;;;;;;12709365;28;20039;-76
2022/01/18 18:30:51;;;;;;;10.07;7.93;;;;;;;;;;12726944;28;20050;-77
2022/01/18 18:36:53;;;;;;;7.63;6.97;;;;;;;;;;12727589;28;20031;-77
2022/01/18 18:43:00;;;;;;;8.77;7.85;;;;;;;;;;12725494;28;20033;-77
2022/01/18 18:49:02;;;;;;;9.15;6.78;;;;;;;;;;12725880;28;20039;-76
2022/01/18 18:55:05;;;;;;;8.93;7.85;;;;;;;;;;12725707;28;20495;-77
2022/01/18 19:01:08;;;;;;;8.30;7.50;;;;;;;;;;12708764;28;20032;-77
2022/01/18 19:07:10;;;;;;;10.43;7.88;;;;;;;;;;12708747;28;20403;-77
2022/01/18 19:13:15;;;;;;;10.85;9.80;;;;;;;;;;12727771;27;20031;-76
2022/01/18 19:19:18;;;;;;;13.43;12.02;;;;;;;;;;12734684;27;20074;-77
2022/01/18 19:25:23;;;;;;;14.60;12.53;;;;;;;;;;12734243;27;20031;-77
2022/01/18 19:31:25;;;;;;;17.50;14.63;;;;;;;;;;12682737;28;20031;-77
2022/01/18 19:37:28;;;;;;;19.00;14.27;;;;;;;;;;12666468;28;20372;-77
2022/01/18 19:43:30;;;;;;;17.90;14.13;;;;;;;;;;12665888;28;20043;-76
2022/01/18 19:49:31;;;;;;;16.30;14.60;;;;;;;;;;12682272;28;20039;-76
2022/01/18 19:55:35;;;;;;;17.08;15.10;;;;;;;;;;12665609;28;20035;-77
2022/01/18 20:01:39;;;;;;;18.63;15.60;;;;;;;;;;12665084;28;20043;-77
2022/01/18 20:07:41;;;;;;;81.93;51.83;;;;;;;;;;12664349;28;20507;-77
2022/01/18 20:13:45;;;;;;;52.63;36.60;;;;;;;;;;12664092;28;20030;-77
2022/01/18 20:19:47;;;;;;;44.67;32.28;;;;;;;;;;12664091;28;20032;-76
2022/01/18 20:25:57;;;;;;;33.47;25.40;;;;;;;;;;12663489;28;20020;-76
2022/01/18 20:31:59;;;;;;;30.08;24.23;;;;;;;;;;12680469;28;20035;-77
2022/01/18 20:38:02;;;;;;;24.02;19.92;;;;;;;;;;12663148;28;20447;-76
2022/01/18 20:44:04;;;;;;;;;;;;;;;;;;12680199;28;20039;-76
2022/01/18 20:50:06;;;;;;;22.80;20.40;;;;;;;;;;12662129;28;19927;-76
2022/01/18 20:56:08;;;;;;;28.67;24.05;;;;;;;;;;12662374;28;20035;-77
2022/01/18 21:02:11;;;;;;;34.20;30.52;;;;;;;;;;12661149;28;20036;-76
2022/01/18 21:08:13;;;;;;;29.57;25.90;;;;;;;;;;12678027;28;20066;-77
2022/01/18 21:14:22;;;;;;;24.80;22.20;;;;;;;;;;12661020;28;20042;-77
2022/01/18 21:20:24;;;;;;;21.23;19.02;;;;;;;;;;12660916;28;20043;-76
2022/01/18 21:26:27;;;;;;;20.15;18.20;;;;;;;;;;12661290;28;20043;-75
2022/01/18 21:32:29;;;;;;;19.98;18.08;;;;;;;;;;12660447;28;20025;-75
2022/01/18 21:38:31;;;;;;;20.57;18.57;;;;;;;;;;12676635;28;20043;-76
2022/01/18 21:44:32;;;;;;;21.77;19.67;;;;;;;;;;12660098;28;20397;-76
2022/01/18 21:50:37;;;;;;;23.27;21.23;;;;;;;;;;12659929;28;20488;-76
2022/01/18 21:56:40;;;;;;;20.70;18.70;;;;;;;;;;12659800;28;20035;-76
2022/01/18 22:02:43;;;;;;;20.58;18.52;;;;;;;;;;12659660;28;20040;-76
2022/01/18 22:08:45;;;;;;;;;;;;;;;;;;12659576;28;20062;-76
2022/01/18 22:14:48;;;;;;;18.42;16.83;;;;;;;;;;12659659;28;19908;-76
2022/01/18 22:20:51;;;;;;;20.02;18.23;;;;;;;;;;12659172;28;20039;-76
2022/01/18 22:26:52;;;;;;;22.10;19.90;;;;;;;;;;12659945;28;20480;-76
2022/01/18 22:32:54;;;;;;;24.30;22.00;;;;;;;;;;12658850;28;20515;-76
2022/01/18 22:38:57;;;;;;;22.85;20.70;;;;;;;;;;12659623;28;20410;-76
2022/01/18 22:45:01;;;;;;;23.60;21.45;;;;;;;;;;12658382;28;20028;-76
2022/01/18 22:51:03;;;;;;;25.17;22.88;;;;;;;;;;12681220;28;20054;-76
2022/01/18 22:57:05;;;;;;;27.67;24.97;;;;;;;;;;12685018;28;20041;-76
2022/01/18 23:03:07;;;;;;;25.70;23.27;;;;;;;;;;12667481;28;20028;-76
2022/01/18 23:09:09;;;;;;;29.17;26.38;;;;;;;;;;12667488;28;20055;-76
2022/01/18 23:15:12;;;;;;;26.40;24.00;;;;;;;;;;12667287;28;20045;-76
2022/01/18 23:21:14;;;;;;;26.33;23.83;;;;;;;;;;12667453;28;20038;-76
2022/01/18 23:27:16;;;;;;;29.90;27.00;;;;;;;;;;12666835;28;20058;-77
2022/01/18 23:33:20;;;;;;;26.85;24.15;;;;;;;;;;12683521;28;20023;-76
2022/01/18 23:39:29;;;;;;;29.38;26.50;;;;;;;;;;12666750;28;20040;-76
2022/01/18 23:45:31;;;;;;;30.88;27.80;;;;;;;;;;12665939;28;20035;-76
2022/01/18 23:51:34;;;;;;;24.45;22.05;;;;;;;;;;12665425;28;20039;-76
2022/01/18 23:57:38;;;;;;;28.87;26.07;;;;;;;;;;12682324;28;20036;-76
